Time;durP1;ratioP1;P1;durP2;ratioP2;P2;SDS_P1;SDS_P2;PMS_P1;PMS_P2;Temp;Humidity;BMP_temperature;BMP_pressure;BME280_temperature;BME280_humidity;BME280_pressure;Samples;Min_cycle;Max_cycle;Signal;HPM_P1;HPM_P2
2023/09/09 00:01:54;;;;;;;;;;;;;;;20.31;100.00;99979.91;4898510;29;19923;-74
2023/09/09 00:04:20;;;;;;;;;;;;;;;20.27;100.00;99979.44;4898328;29;20395;-73
2023/09/09 00:06:45;;;;;;;;;;;;;;;20.12;100.00;99980.56;4898274;29;19924;-74
2023/09/09 00:09:10;;;;;;;;;;;;;;;19.90;100.00;99972.59;4898543;29;20416;-74
2023/09/09 00:11:36;;;;;;;;;;;;;;;19.76;100.00;99970.78;4897671;29;19924;-74
2023/09/09 00:14:01;;;;;;;;;;;;;;;19.76;100.00;99970.78;4898479;29;20292;-73
2023/09/09 00:16:31;;;;;;;;;;;;;;;19.76;100.00;99981.50;4898093;29;19927;-74
2023/09/09 00:18:57;;;;;;;;;;;;;;;19.68;100.00;99978.09;4912228;29;20389;-73
2023/09/09 00:21:22;;;;;;;;;;;;;;;19.67;100.00;99971.94;4898070;29;19931;-73
2023/09/09 00:23:47;;;;;;;;;;;;;;;19.69;100.00;99967.22;4897470;29;19927;-72
2023/09/09 00:26:13;;;;;;;;;;;;;;;19.74;100.00;99972.81;4897936;29;19931;-73
2023/09/09 00:28:39;;;;;;;;;;;;;;;19.77;100.00;99977.81;4897921;29;19955;-73
2023/09/09 00:31:04;;;;;;;;;;;;;;;19.80;100.00;99969.38;4898086;29;20393;-73
2023/09/09 00:33:29;;;;;;;;;;;;;;;19.76;100.00;99969.97;4896233;29;19980;-73
2023/09/09 00:35:58;;;;;;;;;;;;;;;19.70;100.00;99976.91;4897559;29;19923;-73
2023/09/09 00:38:24;;;;;;;;;;;;;;;19.63;100.00;99968.81;4898606;29;19973;-72
2023/09/09 00:41:08;;;;;;;;;;;;;;;19.59;100.00;99972.06;4895957;29;19924;-72
2023/09/09 00:43:37;;;;;;;;;;;;;;;19.49;100.00;99976.91;4911744;29;19923;-74
2023/09/09 00:46:03;;;;;;;;;;;;;;;19.51;100.00;99977.53;4897288;29;19930;-74
2023/09/09 00:48:28;;;;;;;;;;;;;;;19.53;100.00;99970.16;4895893;29;20365;-71
2023/09/09 00:50:54;;;;;;;;;;;;;;;19.50;100.00;99970.50;4897161;29;19990;-74
2023/09/09 00:53:20;;;;;;;;;;;;;;;19.53;100.00;99970.16;4897274;29;19930;-73
2023/09/09 00:55:45;;;;;;;;;;;;;;;19.57;100.00;99966.06;4895528;29;20278;-72
2023/09/09 00:58:11;;;;;;;;;;;;;;;19.60;100.00;99965.69;4895249;29;19926;-73
2023/09/09 01:00:37;;;;;;;;;;;;;;;19.58;100.00;99967.72;4894800;29;20099;-74
2023/09/09 01:03:03;;;;;;;;;;;;;;;19.49;100.00;99964.34;4894963;29;19938;-74
2023/09/09 01:05:29;;;;;;;;;;;;;;;19.53;100.00;99964.78;4910644;29;19926;-74
2023/09/09 01:07:54;;;;;;;;;;;;;;;19.45;100.00;99967.56;4898230;29;19927;-73
2023/09/09 01:10:20;;;;;;;;;;;;;;;19.45;100.00;99972.91;4896209;29;20318;-74
2023/09/09 01:12:46;;;;;;;;;;;;;;;19.43;100.00;99981.16;4896401;29;20369;-73
2023/09/09 01:15:12;;;;;;;;;;;;;;;19.40;100.00;99975.31;4880656;29;19923;-74
2023/09/09 01:17:39;;;;;;;;;;;;;;;19.38;100.00;99975.50;4895876;29;20416;-72
2023/09/09 01:20:13;;;;;;;;;;;;;;;19.29;100.00;99973.97;4896944;29;19923;-74
2023/09/09 01:22:39;;;;;;;;;;;;;;;19.20;100.00;99972.44;4895357;29;19972;-74
2023/09/09 01:25:05;;;;;;;;;;;;;;;19.27;100.00;99976.00;4911459;29;20259;-74
2023/09/09 01:27:31;;;;;;;;;;;;;;;19.28;100.00;99971.47;4896775;29;19923;-72
2023/09/09 01:29:56;;;;;;;;;;;;;;;19.20;100.00;99975.91;4896113;29;19930;-73
2023/09/09 01:32:21;;;;;;;;;;;;;;;19.19;100.00;99973.47;4895779;29;19930;-72
2023/09/09 01:34:48;;;;;;;;;;;;;;;19.18;100.00;99972.63;4896276;29;20455;-73
2023/09/09 01:37:13;;;;;;;;;;;;;;;19.21;100.00;99974.91;4895058;29;20002;-73
2023/09/09 01:39:39;;;;;;;;;;;;;;;19.22;100.00;99979.25;4896322;29;20014;-73
2023/09/09 01:42:04;;;;;;;;;;;;;;;19.18;100.00;99972.63;4896701;29;19923;-72
2023/09/09 01:44:30;;;;;;;;;;;;;;;19.13;100.00;99980.38;4911046;29;19923;-73
2023/09/09 01:46:55;;;;;;;;;;;;;;;19.07;100.00;99981.13;4896500;29;19924;-73
2023/09/09 01:49:20;;;;;;;;;;;;;;;19.13;100.00;99972.38;4896475;29;20430;-73
2023/09/09 01:51:46;;;;;;;;;;;;;;;19.16;100.00;99977.31;4895696;29;19978;-73
2023/09/09 01:54:11;;;;;;;;;;;;;;;19.15;100.00;99967.63;4896361;29;20614;-73
2023/09/09 01:56:36;;;;;;;;;;;;;;;19.15;100.00;99978.34;4895414;29;19930;-73
2023/09/09 01:59:02;;;;;;;;;;;;;;;19.18;100.00;99972.63;4910629;29;19924;-73
2023/09/09 02:01:27;;;;;;;;;;;;;;;19.10;100.00;99975.41;4894974;29;20372;-71
2023/09/09 02:03:52;;;;;;;;;;;;;;;19.00;100.00;99968.69;4894481;29;19938;-73
2023/09/09 02:06:18;;;;;;;;;;;;;;;18.75;100.00;99970.81;4899254;29;19923;-73
2023/09/09 02:08:43;;;;;;;;;;;;;;;18.50;100.00;99982.75;4895630;29;20026;-74
2023/09/09 02:11:09;;;;;;;;;;;;;;;18.50;100.00;99977.41;4896060;29;20351;-74
2023/09/09 02:13:35;;;;;;;;;;;;;;;18.59;100.00;99984.38;4895874;29;20389;-73
2023/09/09 02:16:03;;;;;;;;;;;;;;;18.64;100.00;99982.00;4896287;29;20011;-74
2023/09/09 02:18:29;;;;;;;;;;;;;;;18.62;100.00;99978.66;4910322;29;19931;-73
2023/09/09 02:20:58;;;;;;;;;;;;;;;18.56;100.00;99974.03;4895905;29;20346;-73
2023/09/09 02:23:24;;;;;;;;;;;;;;;18.58;100.00;99974.69;4895509;29;19995;-73
2023/09/09 02:25:49;;;;;;;;;;;;;;;18.58;100.00;99972.03;4895483;29;20014;-74
2023/09/09 02:28:15;;;;;;;;;;;;;;;18.62;100.00;99981.31;4895942;29;19991;-74
2023/09/09 02:30:43;;;;;;;;;;;;;;;18.69;100.00;99974.25;4909890;29;19935;-74
2023/09/09 02:33:09;;;;;;;;;;;;;;;18.56;100.00;99977.56;4894254;29;19923;-74
2023/09/09 02:35:35;;;;;;;;;;;;;;;18.61;100.00;99974.34;4901208;29;19946;-74
2023/09/09 02:38:00;;;;;;;;;;;;;;;18.66;100.00;99971.94;4896099;29;19923;-73
2023/09/09 02:40:26;;;;;;;;;;;;;;;18.69;100.00;99974.25;4893840;29;19924;-72
2023/09/09 02:42:51;;;;;;;;;;;;;;;18.62;100.00;99975.97;4895253;29;20027;-72
2023/09/09 02:45:16;;;;;;;;;;;;;;;18.57;100.00;99973.88;4894217;29;20418;-74
2023/09/09 02:47:41;;;;;;;;;;;;;;;18.39;100.00;99976.88;4895511;29;20400;-72
2023/09/09 02:50:07;;;;;;;;;;;;;;;18.19;100.00;99975.75;4895325;29;20353;-73
2023/09/09 02:52:32;;;;;;;;;;;;;;;18.07;100.00;99977.19;4894144;29;20377;-72
2023/09/09 02:54:58;;;;;;;;;;;;;;;18.06;100.00;99970.19;4892939;29;20329;-72
2023/09/09 02:57:23;;;;;;;;;;;;;;;18.12;100.00;99974.81;4895615;29;19924;-73
2023/09/09 02:59:49;;;;;;;;;;;;;;;18.19;100.00;99978.41;4893900;29;20289;-73
2023/09/09 03:02:15;;;;;;;;;;;;;;;18.25;100.00;99979.53;4894245;29;19924;-73
2023/09/09 03:04:40;;;;;;;;;;;;;;;18.22;100.00;99985.22;4893455;29;19973;-73
2023/09/09 03:07:05;;;;;;;;;;;;;;;18.19;100.00;99983.75;4909955;29;19923;-72
2023/09/09 03:09:31;;;;;;;;;;;;;;;18.13;100.00;99981.81;4897445;29;20288;-72
2023/09/09 03:11:57;;;;;;;;;;;;;;;18.09;100.00;99985.84;4899206;29;20481;-72
2023/09/09 03:14:22;;;;;;;;;;;;;;;18.08;100.00;99984.19;4897139;29;19924;-72
2023/09/09 03:16:48;;;;;;;;;;;;;;;18.10;100.00;99984.00;4899017;29;19980;-72
2023/09/09 03:19:14;;;;;;;;;;;;;;;18.03;100.00;99986.56;4898978;29;20018;-73
2023/09/09 03:21:39;;;;;;;;;;;;;;;18.03;100.00;99986.56;4898737;29;20056;-73
2023/09/09 03:24:04;;;;;;;;;;;;;;;17.97;100.00;99988.09;4898901;29;20062;-73
2023/09/09 03:26:32;;;;;;;;;;;;;;;18.00;100.00;99981.59;4898855;29;19923;-73
2023/09/09 03:28:58;;;;;;;;;;;;;;;17.92;100.00;99989.66;4897687;29;19927;-73
2023/09/09 03:31:24;;;;;;;;;;;;;;;17.75;100.00;99982.78;4897837;29;20668;-73
2023/09/09 03:33:49;;;;;;;;;;;;;;;17.72;100.00;99977.81;4897028;29;19923;-73
2023/09/09 03:36:14;;;;;;;;;;;;;;;17.70;100.00;99979.81;4897785;29;19924;-73
2023/09/09 03:38:40;;;;;;;;;;;;;;;17.76;100.00;99979.13;4897398;29;19927;-72
2023/09/09 03:41:06;;;;;;;;;;;;;;;17.81;100.00;99974.06;4913145;29;19988;-74
2023/09/09 03:43:33;;;;;;;;;;;;;;;17.80;100.00;99977.75;4897030;29;20384;-73
2023/09/09 03:46:00;;;;;;;;;;;;;;;17.88;100.00;99977.69;4897356;29;19930;-73
2023/09/09 03:48:25;;;;;;;;;;;;;;;17.90;100.00;99983.69;4897108;29;20717;-73
2023/09/09 03:50:56;;;;;;;;;;;;;;;17.97;100.00;99981.94;4897194;29;19967;-72
2023/09/09 03:53:21;;;;;;;;;;;;;;;17.87;100.00;99984.03;4897200;29;19927;-71
2023/09/09 03:55:46;;;;;;;;;;;;;;;17.79;100.00;99974.25;4898356;29;19934;-72
2023/09/09 03:58:12;;;;;;;;;;;;;;;17.68;100.00;99981.84;4896919;29;19923;-71
2023/09/09 04:00:37;;;;;;;;;;;;;;;17.69;100.00;99978.16;4912421;29;20261;-72
2023/09/09 04:03:03;;;;;;;;;;;;;;;17.70;100.00;99979.81;4898262;29;19923;-74
2023/09/09 04:05:28;;;;;;;;;;;;;;;17.69;100.00;99978.16;4912857;29;19963;-73
2023/09/09 04:07:58;;;;;;;;;;;;;;;17.75;100.00;99977.44;4898336;29;20381;-74
2023/09/09 04:10:24;;;;;;;;;;;;;;;17.75;100.00;99978.28;4897190;29;19938;-72
2023/09/09 04:12:49;;;;;;;;;;;;;;;17.78;100.00;99977.09;4879485;29;19924;-73
2023/09/09 04:15:14;;;;;;;;;;;;;;;17.73;100.00;99984.81;4896954;29;19963;-73
2023/09/09 04:17:40;;;;;;;;;;;;;;;17.65;100.00;99982.19;4896446;29;20384;-74
2023/09/09 04:20:06;;;;;;;;;;;;;;;17.59;100.00;99973.88;4895642;29;19924;-72
2023/09/09 04:22:32;;;;;;;;;;;;;;;17.54;100.00;99976.25;4896389;29;20000;-74
2023/09/09 04:24:58;;;;;;;;;;;;;;;17.50;100.00;99979.41;4896780;29;20121;-74
2023/09/09 04:27:24;;;;;;;;;;;;;;;17.42;100.00;99983.00;4926748;23;19935;-83
2023/09/09 04:29:50;;;;;;;;;;;;;;;17.33;100.00;99984.03;4955713;28;19922;-85
2023/09/09 04:32:15;;;;;;;;;;;;;;;17.40;100.00;99974.31;4954792;28;19923;-86
2023/09/09 04:34:41;;;;;;;;;;;;;;;17.46;100.00;99984.28;4954768;28;19930;-86
2023/09/09 04:37:07;;;;;;;;;;;;;;;17.47;100.00;99980.63;4957669;28;19923;-86
2023/09/09 04:39:33;;;;;;;;;;;;;;;17.47;100.00;99980.63;4954452;28;20377;-86
2023/09/09 04:41:58;;;;;;;;;;;;;;;17.49;100.00;99975.94;4957425;28;19986;-86
2023/09/09 04:44:24;;;;;;;;;;;;;;;17.38;100.00;99975.50;4955885;28;19923;-86
2023/09/09 04:46:50;;;;;;;;;;;;;;;17.38;100.00;99981.66;4958027;28;20804;-83
2023/09/09 04:49:17;;;;;;;;;;;;;;;17.39;100.00;99988.66;4955712;28;20329;-86
2023/09/09 04:51:43;;;;;;;;;;;;;;;17.32;100.00;99978.91;4953997;28;20335;-88
2023/09/09 04:54:08;;;;;;;;;;;;;;;17.29;100.00;99982.72;4963483;28;19962;-87
2023/09/09 04:56:34;;;;;;;;;;;;;;;17.28;100.00;99982.91;4959700;28;19934;-86
2023/09/09 04:58:59;;;;;;;;;;;;;;;17.27;100.00;99990.06;4956615;28;19923;-86
2023/09/09 05:01:24;;;;;;;;;;;;;;;17.28;100.00;99991.72;4957468;28;20239;-86
2023/09/09 05:03:50;;;;;;;;;;;;;;;17.28;100.00;99997.06;4955618;28;19931;-86
2023/09/09 05:06:15;;;;;;;;;;;;;;;17.28;100.00;99990.91;4956174;28;19923;-85
2023/09/09 05:08:40;;;;;;;;;;;;;;;17.27;100.00;99984.72;4953013;28;19935;-86
2023/09/09 05:11:06;;;;;;;;;;;;;;;17.29;100.00;99990.72;4956104;28;19922;-84
2023/09/09 05:13:33;;;;;;;;;;;;;;;17.28;100.00;99991.72;4950089;28;20021;-84
2023/09/09 05:15:59;;;;;;;;;;;;;;;17.32;100.00;99987.69;4951980;28;19922;-84
2023/09/09 05:18:25;;;;;;;;;;;;;;;17.36;100.00;99999.69;4952940;28;20244;-87
2023/09/09 05:20:51;;;;;;;;;;;;;;;17.42;100.00;99996.34;4942083;29;19938;-88
2023/09/09 05:23:17;;;;;;;;;;;;;;;17.39;100.00;99994.00;4953442;28;19922;-87
2023/09/09 05:25:43;;;;;;;;;;;;;;;17.30;100.00;99999.56;4952206;28;19930;-87
2023/09/09 05:28:08;;;;;;;;;;;;;;;17.25;100.00;100002.78;4954893;28;19930;-86
2023/09/09 05:30:38;;;;;;;;;;;;;;;17.27;100.00;99999.91;4953028;28;19930;-85
2023/09/09 05:33:04;;;;;;;;;;;;;;;17.35;100.00;100003.38;4952884;28;20387;-86
2023/09/09 05:35:29;;;;;;;;;;;;;;;17.42;100.00;100009.66;4953055;28;19929;-85
2023/09/09 05:37:54;;;;;;;;;;;;;;;17.33;100.00;100000.03;4954956;28;19923;-84
2023/09/09 05:40:20;;;;;;;;;;;;;;;17.33;100.00;100010.72;4955900;28;19989;-84
2023/09/09 05:42:45;;;;;;;;;;;;;;;17.41;100.00;100008.00;4951163;28;20017;-85
2023/09/09 05:45:11;;;;;;;;;;;;;;;17.40;100.00;100011.69;4952733;28;20162;-84
2023/09/09 05:47:38;;;;;;;;;;;;;;;17.47;100.00;100007.31;4948238;28;19962;-82
2023/09/09 05:50:05;;;;;;;;;;;;;;;17.41;100.00;100002.66;4952015;28;20391;-83
2023/09/09 05:52:31;;;;;;;;;;;;;;;17.47;100.00;100015.31;4948463;28;19945;-83
2023/09/09 05:54:57;;;;;;;;;;;;;;;17.39;100.00;100010.00;4952130;28;19922;-83
2023/09/09 05:57:23;;;;;;;;;;;;;;;17.43;100.00;100011.34;4950755;28;19925;-82
2023/09/09 05:59:49;;;;;;;;;;;;;;;17.47;100.00;100009.97;4950750;28;19998;-83
2023/09/09 06:02:16;;;;;;;;;;;;;;;17.36;100.00;100012.22;4951096;28;19988;-83
2023/09/09 06:04:42;;;;;;;;;;;;;;;17.35;100.00;100008.72;4947975;29;19926;-85
2023/09/09 06:07:07;;;;;;;;;;;;;;;17.41;100.00;100016.00;4932581;29;19923;-83
2023/09/09 06:09:33;;;;;;;;;;;;;;;17.46;100.00;100015.47;4953152;28;19919;-83
2023/09/09 06:11:58;;;;;;;;;;;;;;;17.56;100.00;100016.91;4937027;29;19923;-83
2023/09/09 06:14:23;;;;;;;;;;;;;;;17.59;100.00;100015.72;4951836;28;19931;-82
2023/09/09 06:16:49;;;;;;;;;;;;;;;17.62;100.00;100014.56;4951818;29;19919;-83
2023/09/09 06:19:14;;;;;;;;;;;;;;;17.72;100.00;100020.53;4952237;28;19923;-84
2023/09/09 06:21:39;;;;;;;;;;;;;;;17.81;100.00;100019.44;4950618;28;20269;-84
2023/09/09 06:24:07;;;;;;;;;;;;;;;17.87;100.00;100014.22;4951790;28;19954;-83
2023/09/09 06:26:33;;;;;;;;;;;;;;;17.92;100.00;100021.69;4932036;29;19929;-84
2023/09/09 06:29:00;;;;;;;;;;;;;;;18.06;100.00;100017.44;4950269;28;19945;-83
2023/09/09 06:31:26;;;;;;;;;;;;;;;18.13;100.00;100024.53;4952456;28;19926;-82
2023/09/09 06:33:52;;;;;;;;;;;;;;;18.11;100.00;100026.56;4951545;28;19972;-83
2023/09/09 06:36:23;;;;;;;;;;;;;;;18.14;100.00;100028.06;4952665;28;19922;-85
2023/09/09 06:38:49;;;;;;;;;;;;;;;18.21;100.00;100027.13;4951657;29;19927;-85
2023/09/09 06:41:15;;;;;;;;;;;;;;;18.32;100.00;100025.84;4954864;28;20009;-84
2023/09/09 06:43:42;;;;;;;;;;;;;;;18.23;100.00;100030.47;4947968;28;19927;-84
2023/09/09 06:46:08;;;;;;;;;;;;;;;18.41;100.00;100017.59;4947948;29;19922;-82
2023/09/09 06:48:33;;;;;;;;;;;;;;;18.50;100.00;100021.00;4952425;28;19934;-85
2023/09/09 06:50:58;;;;;;;;;;;;;;;18.61;100.00;100014.44;4953396;29;19922;-85
2023/09/09 06:53:24;;;;;;;;;;;;;;;18.70;100.00;100024.03;4951703;28;19930;-82
2023/09/09 06:55:50;;;;;;;;;;;;;;;18.78;100.00;100023.94;4950232;28;19941;-82
2023/09/09 06:58:15;;;;;;;;;;;;;;;18.87;100.00;100027.34;4950838;28;19929;-85
2023/09/09 07:00:49;;;;;;;;;;;;;;;18.94;100.00;100023.75;4952781;28;19985;-82
2023/09/09 07:03:15;;;;;;;;;;;;;;;18.97;100.00;100022.53;4953927;28;20421;-83
2023/09/09 07:05:40;;;;;;;;;;;;;;;19.06;100.00;100027.63;4950245;28;19933;-82
2023/09/09 07:08:06;;;;;;;;;;;;;;;19.18;100.00;100026.13;4953797;29;19929;-88
2023/09/09 07:10:31;;;;;;;;;;;;;;;19.18;100.00;100034.16;4956958;28;19950;-88
2023/09/09 07:12:57;;;;;;;;;;;;;;;19.06;100.00;100027.63;4957519;28;20371;-87
2023/09/09 07:15:22;;;;;;;;;;;;;;;19.05;100.00;100025.94;4958275;28;19930;-88
2023/09/09 07:17:48;;;;;;;;;;;;;;;19.22;100.00;100026.56;4956204;28;19973;-89
2023/09/09 07:20:13;;;;;;;;;;;;;;;19.40;100.00;100024.31;4953762;29;19923;-90
2023/09/09 07:22:39;;;;;;;;;;;;;;;19.48;100.00;100031.44;4955246;28;19923;-90
2023/09/09 07:25:05;;;;;;;;;;;;;;;19.55;100.00;100033.19;4954737;28;20013;-88
2023/09/09 07:27:31;;;;;;;;;;;;;;;19.64;100.00;100036.56;4957329;28;19970;-90
2023/09/09 07:29:56;;;;;;;;;;;;;;;19.73;100.00;100034.63;4952720;28;20302;-90
2023/09/09 07:32:22;;;;;;;;;;;;;;;19.81;100.00;100031.81;4956066;28;19927;-84
2023/09/09 07:34:48;;;;;;;;;;;;;;;19.90;100.00;100026.16;4950026;28;19922;-86
2023/09/09 07:37:13;;;;;;;;;;;;;;;20.00;100.00;100032.00;4952413;28;19922;-86
2023/09/09 07:39:45;;;;;;;;;;;;;;;20.12;100.00;100028.81;4950940;28;19923;-79
2023/09/09 07:42:12;;;;;;;;;;;;;;;20.21;100.00;100022.28;4951947;28;20139;-84
2023/09/09 07:44:37;;;;;;;;;;;;;;;20.32;100.00;100024.47;4950448;28;19929;-90
2023/09/09 07:47:06;;;;;;;;;;;;;;;20.34;100.00;100025.94;4947146;28;19926;-87
2023/09/09 07:49:33;;;;;;;;;;;;;;;20.49;100.00;100020.50;4948961;29;20307;-86
2023/09/09 07:51:58;;;;;;;;;;;;;;;20.55;100.00;100024.25;4950113;28;19922;-86
2023/09/09 07:54:24;;;;;;;;;;;;;;;20.65;100.00;100033.59;4947919;28;20277;-86
2023/09/09 07:56:49;;;;;;;;;;;;;;;20.69;100.00;100034.84;4954783;28;19919;-84
2023/09/09 07:59:14;;;;;;;;;;;;;;;20.81;100.00;100027.91;4947541;29;19978;-88
2023/09/09 08:01:39;;;;;;;;;;;;;;;20.89;100.00;100020.72;4954998;28;20351;-85
2023/09/09 08:04:05;;;;;;;;;;;;;;;20.96;100.00;100033.16;4954230;28;20446;-86
2023/09/09 08:06:30;;;;;;;;;;;;;;;20.99;100.00;100031.91;4955124;28;20073;-86
2023/09/09 08:08:55;;;;;;;;;;;;;;;21.07;100.00;100035.28;4954263;28;20426;-86
2023/09/09 08:11:21;;;;;;;;;;;;;;;21.15;100.00;100037.81;4953845;28;20359;-84
2023/09/09 08:16:15;;;;;;;;;;;;;;;21.26;100.00;100033.75;4908703;29;19934;-86
2023/09/09 08:18:40;;;;;;;;;;;;;;;21.29;100.00;100033.34;4914263;29;20013;-87
2023/09/09 08:21:05;;;;;;;;;;;;;;;21.29;100.00;100037.88;4912686;29;19973;-86
2023/09/09 08:23:31;;;;;;;;;;;;;;;21.40;100.00;100030.06;4908804;29;20384;-85
2023/09/09 08:25:57;;;;;;;;;;;;;;;21.51;100.00;100026.81;4911933;29;19927;-84
2023/09/09 08:28:22;;;;;;;;;;;;;;;21.59;100.00;100033.84;4911083;29;19923;-84
2023/09/09 08:30:48;;;;;;;;;;;;;;;21.69;100.00;100030.78;4928199;29;19958;-83
2023/09/09 08:33:13;;;;;;;;;;;;;;;21.75;100.00;100029.97;4909378;29;20353;-86
2023/09/09 08:35:38;;;;;;;;;;;;;;;21.84;100.00;100036.81;4912199;29;19938;-86
2023/09/09 08:38:04;;;;;;;;;;;;;;;21.92;100.00;100028.53;4916649;29;19987;-87
2023/09/09 08:40:34;;;;;;;;;;;;;;;21.99;100.00;100030.25;4908351;29;19924;-88
2023/09/09 08:43:07;;;;;;;;;;;;;;;22.06;100.00;100035.63;4915647;29;19927;-84
2023/09/09 08:45:56;;;;;;;;;;;;;;;22.15;100.00;100039.75;4915272;29;19919;-85
2023/09/09 08:48:22;;;;;;;;;;;;;;;22.22;100.00;100034.41;4908490;29;19927;-83
2023/09/09 08:50:50;;;;;;;;;;;;;;;22.31;100.00;100039.38;4910114;29;19953;-86
2023/09/09 08:53:17;;;;;;;;;;;;;;;22.38;100.00;100029.44;4915055;29;20292;-84
2023/09/09 08:55:42;;;;;;;;;;;;;;;22.45;100.00;100032.94;4915299;29;20013;-87
2023/09/09 08:58:08;;;;;;;;;;;;;;;22.52;100.00;100029.41;4916477;29;20432;-85
2023/09/09 09:00:34;;;;;;;;;;;;;;;22.58;100.00;100031.28;4916062;29;19923;-87
2023/09/09 09:03:01;;;;;;;;;;;;;;;22.64;100.00;100033.13;4915833;29;19923;-88
2023/09/09 09:05:27;;;;;;;;;;;;;;;22.70;100.00;100021.53;4914247;29;19923;-85
2023/09/09 09:07:52;;;;;;;;;;;;;;;22.75;100.00;100024.44;4912011;29;19923;-86
2023/09/09 09:10:18;;;;;;;;;;;;;;;22.81;100.00;100018.22;4910382;29;19923;-86
2023/09/09 09:12:44;;;;;;;;;;;;;;;22.92;100.00;100020.25;4910300;29;20373;-89
2023/09/09 09:15:10;;;;;;;;;;;;;;;23.00;100.00;100006.59;4915948;29;19934;-87
2023/09/09 09:17:39;;;;;;;;;;;;;;;23.08;100.00;100019.81;4915829;29;19923;-88
2023/09/09 09:20:07;;;;;;;;;;;;;;;23.14;100.00;100013.59;4919867;29;19923;-86
2023/09/09 09:22:32;;;;;;;;;;;;;;;23.21;100.00;100016.22;4920734;29;20022;-89
2023/09/09 09:24:57;;;;;;;;;;;;;;;23.30;100.00;100011.44;4917618;29;19919;-92
2023/09/09 09:27:23;;;;;;;;;;;;;;;23.35;100.00;100009.75;4915772;29;20023;-90
2023/09/09 09:29:48;;;;;;;;;;;;;;;23.41;100.00;100008.06;4913413;29;20431;-86
2023/09/09 09:32:16;;;;;;;;;;;;;;;23.47;100.00;100004.56;4916111;29;20369;-88
2023/09/09 09:34:41;;;;;;;;;;;;;;;23.55;100.00;100004.31;4915647;29;19923;-89
2023/09/09 09:37:10;;;;;;;;;;;;;;;23.61;100.00;99998.06;4915581;29;19923;-88
2023/09/09 09:39:36;;;;;;;;;;;;;;;23.71;100.00;100001.09;4916322;29;19923;-88
2023/09/09 09:42:02;;;;;;;;;;;;;;;23.75;100.00;100005.00;4917585;29;19982;-89
2023/09/09 09:44:27;;;;;;;;;;;;;;;23.84;100.00;99987.53;4916136;29;19927;-89
2023/09/09 09:47:03;;;;;;;;;;;;;;;23.91;100.00;99993.72;4912923;29;19987;-86
2023/09/09 09:49:39;;;;;;;;;;;;;;;23.97;100.00;99992.84;4913783;29;19927;-81
2023/09/09 09:52:05;;;;;;;;;;;;;;;24.02;100.00;99995.72;4910451;29;20391;-82
2023/09/09 09:54:32;;;;;;;;;;;;;;;24.05;100.00;99989.84;4915712;29;19924;-87
2023/09/09 09:57:01;;;;;;;;;;;;;;;24.11;100.00;99987.31;4916001;29;19927;-84
2023/09/09 09:59:28;;;;;;;;;;;;;;;24.14;100.00;99986.91;4913382;29;19949;-82
2023/09/09 10:01:54;;;;;;;;;;;;;;;24.19;100.00;99990.63;4913749;29;20013;-84
2023/09/09 10:04:21;;;;;;;;;;;;;;;24.24;100.00;99981.84;4914179;29;19930;-82
2023/09/09 10:06:47;;;;;;;;;;;;;;;24.27;100.00;99989.53;4911462;29;19923;-80
2023/09/09 10:09:23;;;;;;;;;;;;;;;24.34;100.00;99982.16;4915732;29;19927;-81
2023/09/09 10:12:06;;;;;;;;;;;;;;;24.40;100.00;99975.88;4914040;29;19931;-81
2023/09/09 10:14:33;;;;;;;;;;;;;;;24.46;100.00;99980.41;4897930;29;20308;-83
2023/09/09 10:16:58;;;;;;;;;;;;;;;24.52;100.00;99979.50;4910473;29;19931;-82
2023/09/09 10:19:25;;;;;;;;;;;;;;;24.57;100.00;99966.16;4914645;29;19934;-82
2023/09/09 10:21:50;;;;;;;;;;;;;;;24.64;100.00;99972.31;4912320;29;20603;-81
2023/09/09 10:24:17;;;;;;;;;;;;;;;24.71;100.00;99969.56;4913052;29;19919;-84
2023/09/09 10:26:42;;;;;;;;;;;;;;;24.82;100.00;99964.25;4911782;29;19923;-81
2023/09/09 10:29:08;;;;;;;;;;;;;;;24.93;100.00;99964.56;4914957;29;20353;-81
2023/09/09 10:31:34;;;;;;;;;;;;;;;24.98;100.00;99967.41;4915166;29;19919;-82
2023/09/09 10:34:01;;;;;;;;;;;;;;;25.03;100.00;99965.69;4915705;29;19923;-81
2023/09/09 10:36:29;;;;;;;;;;;;;;;25.08;100.00;99962.31;4913479;29;19923;-81
2023/09/09 10:38:55;;;;;;;;;;;;;;;25.10;100.00;99955.63;4915842;29;19939;-87
2023/09/09 10:41:21;;;;;;;;;;;;;;;25.15;100.00;99946.84;4915788;29;20446;-87
2023/09/09 10:43:46;;;;;;;;;;;;;;;25.26;100.00;99937.97;4916571;29;20017;-88
2023/09/09 10:46:12;;;;;;;;;;;;;;;25.28;100.00;99939.38;4915692;29;20342;-90
2023/09/09 10:48:38;;;;;;;;;;;;;;;25.37;100.00;99939.06;4915578;29;19951;-88
2023/09/09 10:51:04;;;;;;;;;;;;;;;25.42;100.00;99941.91;4910938;29;19962;-88
2023/09/09 10:53:30;;;;;;;;;;;;;;;25.46;100.00;99933.09;4911994;29;20336;-88
2023/09/09 10:56:00;;;;;;;;;;;;;;;25.47;100.00;99933.94;4913460;29;19958;-86
2023/09/09 10:58:35;;;;;;;;;;;;;;;25.47;100.00;99940.16;4912627;29;20021;-85
2023/09/09 11:01:01;;;;;;;;;;;;;;;25.49;100.00;99926.41;4915759;29;20444;-84
2023/09/09 11:03:36;;;;;;;;;;;;;;;25.51;100.00;99930.53;4913144;29;19924;-91
2023/09/09 11:06:02;;;;;;;;;;;;;;;25.62;100.00;99916.25;4911424;29;20452;-88
2023/09/09 11:08:31;;;;;;;;;;;;;;;25.73;99.06;99919.22;4912853;29;19927;-88
2023/09/09 11:11:13;;;;;;;;;;;;;;;25.82;97.15;99924.06;4915616;29;20019;-86
2023/09/09 11:13:42;;;;;;;;;;;;;;;25.93;98.20;99919.72;4913089;29;19923;-87
2023/09/09 11:16:21;;;;;;;;;;;;;;;26.05;97.79;99915.13;4912274;29;19923;-90
2023/09/09 11:18:47;;;;;;;;;;;;;;;26.04;97.25;99908.91;4916639;29;19923;-89
2023/09/09 11:21:13;;;;;;;;;;;;;;;26.12;95.24;99913.16;4912981;29;19953;-86
2023/09/09 11:23:38;;;;;;;;;;;;;;;26.10;97.75;99901.72;4913063;29;20296;-85
2023/09/09 11:26:04;;;;;;;;;;;;;;;26.13;98.68;99912.09;4912291;29;19979;-86
2023/09/09 11:28:30;;;;;;;;;;;;;;;26.18;96.31;99911.38;4915723;29;20068;-87
2023/09/09 11:30:55;;;;;;;;;;;;;;;26.26;96.26;99909.19;4916131;29;20407;-87
2023/09/09 11:33:23;;;;;;;;;;;;;;;26.30;97.16;99913.06;4914482;29;19927;-88
2023/09/09 11:35:49;;;;;;;;;;;;;;;26.33;98.06;99907.16;4919023;29;19923;-87
2023/09/09 11:38:14;;;;;;;;;;;;;;;26.37;96.64;99904.81;4917456;29;19923;-88
2023/09/09 11:40:40;;;;;;;;;;;;;;;26.42;99.04;99904.94;4916488;29;19991;-85
2023/09/09 11:43:06;;;;;;;;;;;;;;;26.45;98.45;99899.84;4918039;29;20349;-87
2023/09/09 11:45:32;;;;;;;;;;;;;;;26.52;98.28;99896.19;4915279;29;19954;-87
2023/09/09 11:47:57;;;;;;;;;;;;;;;26.60;97.92;99896.66;4916007;29;19923;-86
2023/09/09 11:50:23;;;;;;;;;;;;;;;26.64;95.09;99891.56;4917609;29;19931;-91
2023/09/09 11:52:48;;;;;;;;;;;;;;;26.77;93.98;99892.16;4918235;29;19930;-91
2023/09/09 11:55:17;;;;;;;;;;;;;;;26.88;92.24;99893.19;4918343;29;19959;-90
2023/09/09 11:57:55;;;;;;;;;;;;;;;27.01;91.71;99890.22;4916036;29;20380;-81
2023/09/09 12:00:21;;;;;;;;;;;;;;;27.17;89.49;99894.84;4918111;29;19923;-91
2023/09/09 12:02:46;;;;;;;;;;;;;;;27.35;89.28;99893.00;4917676;29;19931;-89
2023/09/09 12:05:12;;;;;;;;;;;;;;;27.53;87.49;99884.66;4918010;29;19923;-90
2023/09/09 12:07:37;;;;;;;;;;;;;;;27.69;79.55;99884.66;4921319;29;19924;-89
2023/09/09 12:10:05;;;;;;;;;;;;;;;27.85;81.07;99876.81;4918097;29;20399;-90
2023/09/09 12:12:30;;;;;;;;;;;;;;;27.99;81.23;99870.78;4918296;29;20392;-91
2023/09/09 12:14:56;;;;;;;;;;;;;;;28.16;81.37;99878.13;4910924;29;19937;-89
2023/09/09 12:17:22;;;;;;;;;;;;;;;28.29;81.62;99872.31;4901431;29;19923;-89
2023/09/09 12:20:01;;;;;;;;;;;;;;;28.41;79.74;99865.69;4892316;29;19926;-86
2023/09/09 12:22:28;;;;;;;;;;;;;;;28.57;78.26;99869.41;4888407;29;19924;-87
2023/09/09 12:24:53;;;;;;;;;;;;;;;28.74;79.26;99862.09;4898874;29;20441;-90
2023/09/09 12:27:18;;;;;;;;;;;;;;;28.87;76.60;99858.13;4894440;29;19927;-84
2023/09/09 12:29:45;;;;;;;;;;;;;;;29.00;76.28;99856.91;4892727;29;20578;-83
2023/09/09 12:32:10;;;;;;;;;;;;;;;29.02;73.30;99861.03;4895257;29;20071;-84
2023/09/09 12:34:36;;;;;;;;;;;;;;;29.16;74.13;99858.72;4890476;29;19980;-82